Valiant — WCY6766 — position and weather

sailwx.info

Track history (hours):
 
Tides and Currents Weather Stations Pressure Air Temp Water Temp Dewpoint Dewpoint Depression Visibility Wind Speed Wind Dir Waves Ship Positions

Valiant

Owner: PENN MARITIME INC, SEATTLE, WA. More information available from US FCC via Universal Licensing System and Coast Guard Vessel Documentation Center.

Last reported at 2014-Oct-03 07:08 UTC. Time now 2014-Oct-21 18:22 UTC.
Position N 29°21' W 094°47'.
Warning: this ship's position is 18 days out of date.

Length 160 m; draft 6.2 m.

Type: Cargo ship. MMSI: 369350000.

Date/timePositionNaut miles runAvg speedWind from/ knotsBaromVisibWave heightAir tempDewpointWater temp
2014-Oct-03 07:08N 29°21' W 094°47'0 0.0
2014-Oct-03 06:29N 29°21' W 094°47'0 0.0
2014-Oct-03 05:26N 29°21' W 094°47'0 0.0
2014-Oct-03 04:32N 29°21' W 094°47'0 0.0
2014-Oct-03 03:23N 29°21' W 094°47'0 0.1
2014-Oct-03 02:14N 29°21' W 094°47'0 0.0
2014-Oct-02 23:25N 29°21' W 094°47'7 8.4
2014-Oct-02 22:33N 29°28' W 094°51'1110.8
2014-Oct-02 21:33N 29°37' W 094°57'11 9.4
2014-Oct-02 20:22N 29°46' W 095°05'3 0.1
2014-Oct-01 19:20N 29°44' W 095°08'2 1.9
2014-Oct-01 18:32N 29°45' W 095°06'7 7.0
2014-Oct-01 17:33N 29°41' W 094°59'1010.3
2014-Oct-01 16:32N 29°32' W 094°54'  
2014-Sep-27 06:33N 29°58' W 090°17'6 6.1
2014-Sep-27 05:33N 29°59' W 090°24'1 0.0
2014-Sep-26 05:29N 29°59' W 090°24'  
2014-Sep-24 00:19N 29°23' W 094°49'7 9.8
2014-Sep-23 23:33N 29°30' W 094°52'10 9.9
2014-Sep-23 22:33N 29°39' W 094°58'9 8.9
2014-Sep-23 21:33N 29°46' W 095°04'  
Track history (hours):
 
Tides and Currents Weather Stations Pressure Air Temp Water Temp Dewpoint Dewpoint Depression Visibility Wind Speed Wind Dir Waves Ship Positions

Valiant

Owner: PENN MARITIME INC, SEATTLE, WA. More information available from US FCC via Universal Licensing System and Coast Guard Vessel Documentation Center.

Last reported at 2014-Oct-03 07:08 UTC. Time now 2014-Oct-21 18:22 UTC.
Position N 29°21' W 094°47'.
Warning: this ship's position is 18 days out of date.

Length 160 m; draft 6.2 m.

Type: Cargo ship. MMSI: 369350000.

Date/timePositionNaut miles runAvg speedWind from/ knotsBaromVisibWave heightAir tempDewpointWater temp
2014-Oct-03 07:08N 29°21' W 094°47'0 0.0
2014-Oct-03 06:29N 29°21' W 094°47'0 0.0
2014-Oct-03 05:26N 29°21' W 094°47'0 0.0
2014-Oct-03 04:32N 29°21' W 094°47'0 0.0
2014-Oct-03 03:23N 29°21' W 094°47'0 0.1
2014-Oct-03 02:14N 29°21' W 094°47'0 0.0
2014-Oct-02 23:25N 29°21' W 094°47'7 8.4
2014-Oct-02 22:33N 29°28' W 094°51'1110.8
2014-Oct-02 21:33N 29°37' W 094°57'11 9.4
2014-Oct-02 20:22N 29°46' W 095°05'3 0.1
2014-Oct-01 19:20N 29°44' W 095°08'2 1.9
2014-Oct-01 18:32N 29°45' W 095°06'7 7.0
2014-Oct-01 17:33N 29°41' W 094°59'1010.3
2014-Oct-01 16:32N 29°32' W 094°54'  
2014-Sep-27 06:33N 29°58' W 090°17'6 6.1
2014-Sep-27 05:33N 29°59' W 090°24'1 0.0
2014-Sep-26 05:29N 29°59' W 090°24'  
2014-Sep-24 00:19N 29°23' W 094°49'7 9.8
2014-Sep-23 23:33N 29°30' W 094°52'10 9.9
2014-Sep-23 22:33N 29°39' W 094°58'9 8.9
2014-Sep-23 21:33N 29°46' W 095°04'  

Dump ship's entire track history